• Join FlightAware (Why Join?)
  • Login
  • US Flag 
 
03:37AM EST


 

Airport Tracker/Info


-or-


 

Live Flight TrackerFlight Track Log ✈ N44566 ✈ 02-Jun-2013 ✈ KBDL - KPOU

Flight Track Log - Related Links

Times and Time Zones

All times are in EDT time to prevent confusion due to time zone crossing. See the N44566 flight status page for this flight to view local times or setup timezone preferences in your user account.

Time Position Orientation Groundspeed Altitude Reporting Facility
EDT Latitude Longitude Course Direction KTS MPH feet Rate Location/Type
09:52AM 41.7072 -72.9600 251° West 74 85 4,700  Level Boston Center
09:53AM 41.6989 -72.9822 243° Southwest 63 72 4,600  Descending Boston Center
09:54AM 41.6864 -72.9961 220° Southwest 65 75 4,700  Climbing Boston Center
09:56AM 41.6778 -73.0211 245° Southwest 76 87 4,600  Descending Boston Center
09:57AM 41.6778 -73.0489 270° West 74 85 4,700  Climbing Boston Center
09:58AM 41.8833 -72.9024 251° West  Level Estimated
09:58AM 41.6756 -73.0764 264° West 75 86 4,700  Level Boston Center
09:59AM 41.6731 -73.1044 263° West 76 87 4,600  Descending Boston Center
10:00AM 41.6772 -73.1350 280° West 77 89 4,700  Climbing Boston Center
10:00AM 41.6833 -73.1600 288° West 86 99 4,700  Level Boston Center
10:02AM 41.6744 -73.1977 252° West  Level FlightAware Approximate
10:02AM 41.7000 -73.2000 252° West 86 99 4,700  Level New York TRACON
10:03AM 41.7000 -73.2333 270° West 76 87 4,500 -120 Descending New York TRACON
10:04AM 41.6833 -73.2500 217° Southwest 73 84 4,500  Level New York TRACON
10:05AM 41.6833 -73.2667 270° West 65 75 4,500  Level New York TRACON
10:06AM 41.6833 -73.3000 270° West 73 84 4,500  Level New York TRACON
10:07AM 41.6833 -73.3167 270° West 76 87 4,600  Climbing New York TRACON
10:08AM 41.6833 -73.3500 270° West 85 98 4,500  Descending New York TRACON
10:09AM 41.7000 -73.3833 304° West 78 90 4,600  Climbing New York TRACON
10:10AM 41.7000 -73.4000 270° West 82 94 4,500 -60 Descending New York TRACON
10:11AM 41.7000 -73.4333 270° West 68 78 4,500  Level New York TRACON
10:12AM 41.7000 -73.4500 270° West 69 79 4,500  Level New York TRACON
10:13AM 41.6833 -73.4667 217° Southwest 66 76 4,500  Level New York TRACON
10:14AM 41.6833 -73.5000 270° West 63 72 4,500  Level New York TRACON
10:15AM 41.6833 -73.5167 270° West 72 83 4,600  Climbing New York TRACON
10:16AM 41.6833 -73.5500 270° West 83 96 4,600 -60 Level New York TRACON
10:17AM 41.6833 -73.5833 270° West 80 92 4,500 -240 Descending New York TRACON
10:18AM 41.6667 -73.6000 217° Southwest 74 85 4,200 -360 Descending New York TRACON
10:19AM 41.6667 -73.6333 270° West 75 86 3,800 -360 Descending New York TRACON
10:20AM 41.6667 -73.6667 270° West 82 94 3,500 -360 Descending New York TRACON
10:21AM 41.6667 -73.6833 270° West 87 100 3,200 -300 Descending New York TRACON
10:22AM 41.6667 -73.7167 270° West 89 102 3,000 -540 Descending New York TRACON
10:23AM 41.6667 -73.7500 270° West 97 112 2,200 -420 Descending New York TRACON
10:24AM 41.6833 -73.7833 304° West 103 119 2,200 -300 Level New York TRACON
10:25AM 41.6667 -73.8167 236° Southwest 85 98 1,700 -480 Descending New York TRACON
10:26AM 41.6667 -73.8333 270° West 88 101 1,400 -300 Descending New York TRACON
10:27AM 41.6500 -73.8667 236° Southwest 82 94 1,100 -480 Descending New York TRACON
10:28AM 41.6333 -73.8833 217° Southwest 64 74 600 -600 Descending New York TRACON
10:30AM 41.6266 -73.8842 266° West  Level Estimated
10:37AM 41.6266 -73.8842 266° West  Level Estimated
10:38AM 41.6266 -73.8842 266° West  Level Estimated